createdAt,value
2022-10-07T00:01:22.954Z,1.98
2022-10-07T00:03:51.477Z,2.20
2022-10-07T00:06:21.676Z,2.08
2022-10-07T00:08:53.207Z,2.25
2022-10-07T00:11:24.108Z,2.15
2022-10-07T00:13:54.457Z,2.10
2022-10-07T00:16:25.520Z,2.20
2022-10-07T00:18:56.716Z,2.05
2022-10-07T00:21:26.257Z,1.92
2022-10-07T00:23:56.366Z,2.10
2022-10-07T00:26:27.616Z,2.10
2022-10-07T00:28:56.606Z,2.10
2022-10-07T00:31:28.138Z,2.10
2022-10-07T00:33:57.867Z,2.30
2022-10-07T00:36:28.337Z,1.83
2022-10-07T00:38:59.817Z,1.88
2022-10-07T00:41:30.560Z,2.00
2022-10-07T00:43:59.767Z,2.15
2022-10-07T00:46:33.299Z,2.22
2022-10-07T00:49:06.294Z,1.98
2022-10-07T00:51:36.677Z,1.88
2022-10-07T00:54:14.107Z,2.05
2022-10-07T00:56:43.859Z,2.30
2022-10-07T00:59:13.649Z,1.80
2022-10-07T01:01:42.590Z,1.80
2022-10-07T01:04:12.207Z,1.90
2022-10-07T01:06:41.527Z,2.03
2022-10-07T01:09:13.678Z,1.67
2022-10-07T01:11:57.537Z,1.90
2022-10-07T01:14:40.181Z,1.92
2022-10-07T01:17:12.710Z,1.88
2022-10-07T01:19:57.077Z,1.95
2022-10-07T01:22:38.289Z,1.75
2022-10-07T01:25:26.709Z,2.00
2022-10-07T01:28:02.634Z,1.92
2022-10-07T01:30:33.628Z,1.58
2022-10-07T01:33:07.311Z,2.22
2022-10-07T01:35:38.829Z,1.67
2022-10-07T01:38:12.790Z,2.05
2022-10-07T01:40:46.401Z,1.95
2022-10-07T01:43:19.429Z,2.20
2022-10-07T01:45:49.505Z,1.90
2022-10-07T01:48:18.079Z,1.90
2022-10-07T01:50:47.530Z,1.90
2022-10-07T01:53:32.409Z,2.13
2022-10-07T01:56:21.399Z,2.10
2022-10-07T01:59:18.815Z,2.05
2022-10-07T02:01:54.559Z,1.70
2022-10-07T02:04:49.643Z,2.10
2022-10-07T02:07:33.726Z,1.88
2022-10-07T02:10:13.959Z,1.90
2022-10-07T02:12:49.419Z,2.35
2022-10-07T02:15:25.331Z,1.83
2022-10-07T02:17:57.058Z,1.98
2022-10-07T02:20:28.169Z,1.90
2022-10-07T02:23:00.026Z,1.95
2022-10-07T02:25:32.759Z,1.77
2022-10-07T02:28:03.857Z,2.00
2022-10-07T02:30:35.069Z,2.25
2022-10-07T02:33:07.752Z,1.70
2022-10-07T02:35:42.050Z,1.83
2022-10-07T02:38:13.960Z,2.00
2022-10-07T02:40:47.209Z,1.90
2022-10-07T02:43:21.790Z,1.88
2022-10-07T02:46:00.653Z,1.83
2022-10-07T02:48:34.689Z,1.88
2022-10-07T02:51:08.000Z,1.92
2022-10-07T02:53:41.640Z,1.98
2022-10-07T02:56:10.620Z,1.77
2022-10-07T02:58:45.100Z,1.75
2022-10-07T03:01:19.479Z,2.03
2022-10-07T03:03:48.343Z,2.08
2022-10-07T03:06:20.372Z,1.65
2022-10-07T03:08:49.410Z,1.70
2022-10-07T03:11:17.951Z,1.75
2022-10-07T03:13:46.950Z,1.80
2022-10-07T03:16:17.097Z,1.88
2022-10-07T03:18:46.521Z,1.98
2022-10-07T03:21:16.472Z,1.90
2022-10-07T03:23:45.081Z,1.92
2022-10-07T03:26:13.670Z,1.75
2022-10-07T03:28:42.330Z,2.10
2022-10-07T03:31:13.045Z,1.85
2022-10-07T03:33:43.069Z,2.03
2022-10-07T03:36:11.630Z,1.73
2022-10-07T03:38:40.149Z,1.77
2022-10-07T03:41:08.729Z,2.00
2022-10-07T03:43:37.973Z,1.85
2022-10-07T03:46:06.851Z,1.73
2022-10-07T03:48:35.539Z,1.90
2022-10-07T03:51:05.800Z,1.92
2022-10-07T03:53:34.371Z,1.70
2022-10-07T03:56:02.970Z,2.00
2022-10-07T03:58:31.555Z,1.77
2022-10-07T04:01:10.500Z,1.77
2022-10-07T04:03:39.020Z,1.90
2022-10-07T04:06:09.641Z,1.80
2022-10-07T04:08:39.280Z,1.80
2022-10-07T04:11:07.960Z,1.52
2022-10-07T04:13:36.489Z,1.95
2022-10-07T04:16:09.075Z,1.77
2022-10-07T04:18:37.724Z,1.88
2022-10-07T04:21:06.839Z,1.73
2022-10-07T04:23:37.340Z,1.90
2022-10-07T04:26:09.497Z,1.83
2022-10-07T04:28:38.528Z,1.98
2022-10-07T04:31:09.059Z,1.70
2022-10-07T04:33:40.803Z,1.90
2022-10-07T04:36:10.760Z,1.67
2022-10-07T04:38:42.849Z,1.83
2022-10-07T04:41:11.399Z,1.90
2022-10-07T04:43:39.929Z,1.95
2022-10-07T04:46:11.060Z,1.83
2022-10-07T04:48:39.579Z,1.90
2022-10-07T04:51:09.759Z,1.58
2022-10-07T04:53:40.830Z,1.70
2022-10-07T04:56:11.480Z,1.98
2022-10-07T04:58:40.002Z,2.00
2022-10-07T05:01:11.556Z,1.80
2022-10-07T05:03:41.349Z,1.90
2022-10-07T05:06:10.300Z,2.03
2022-10-07T05:08:40.259Z,1.73
2022-10-07T05:11:08.810Z,1.90
2022-10-07T05:13:39.629Z,1.83
2022-10-07T05:16:10.010Z,1.40
2022-10-07T05:18:39.760Z,1.73
2022-10-07T05:21:11.810Z,1.70
2022-10-07T05:23:41.829Z,1.60
2022-10-07T05:26:14.480Z,2.00
2022-10-07T05:28:44.733Z,2.13
2022-10-07T05:31:15.063Z,1.50
2022-10-07T05:33:44.570Z,1.90
2022-10-07T05:36:13.170Z,1.55
2022-10-07T05:38:43.280Z,1.90
2022-10-07T05:41:13.149Z,1.98
2022-10-07T05:43:43.550Z,1.60
2022-10-07T05:46:15.046Z,1.83
2022-10-07T05:48:47.600Z,2.08
2022-10-07T05:51:17.590Z,2.50
2022-10-07T05:53:49.523Z,2.00
2022-10-07T05:56:20.610Z,2.42
2022-10-07T05:58:52.210Z,3.15
2022-10-07T06:01:22.572Z,2.90
2022-10-07T06:03:52.670Z,2.60
2022-10-07T06:06:21.689Z,2.70
2022-10-07T06:08:52.349Z,2.33
2022-10-07T06:11:38.389Z,2.45
2022-10-07T06:16:35.673Z,2.17
2022-10-07T06:19:04.270Z,2.30
2022-10-07T06:21:32.790Z,2.47
2022-10-07T06:24:02.795Z,3.53
2022-10-07T06:26:31.399Z,5.85
2022-10-07T06:29:00.061Z,7.32
2022-10-07T06:31:28.579Z,10.18
2022-10-07T06:33:57.101Z,10.60
2022-10-07T06:36:25.579Z,10.88
2022-10-07T06:38:55.999Z,9.48
2022-10-07T06:41:26.199Z,9.00
2022-10-07T06:43:57.871Z,9.27
2022-10-07T06:46:26.562Z,7.88
2022-10-07T06:48:55.299Z,6.43
2022-10-07T06:51:25.982Z,6.63
2022-10-07T06:53:58.451Z,6.20
2022-10-07T06:56:28.586Z,6.85
2022-10-07T06:58:57.118Z,6.57
2022-10-07T07:01:25.771Z,6.90
2022-10-07T07:03:57.409Z,6.75
2022-10-07T07:06:26.209Z,6.63
2022-10-07T07:09:05.566Z,7.10
2022-10-07T07:11:44.474Z,6.75
2022-10-07T07:14:14.570Z,6.45
2022-10-07T07:16:46.363Z,6.88
2022-10-07T07:19:17.719Z,6.25
2022-10-07T07:21:50.627Z,6.70
2022-10-07T07:24:21.108Z,5.65
2022-10-07T07:26:51.688Z,7.13
2022-10-07T07:29:20.710Z,6.20
2022-10-07T07:31:50.119Z,5.78
2022-10-07T07:34:18.730Z,5.93
2022-10-07T07:36:48.932Z,5.95
2022-10-07T07:39:19.519Z,5.70
2022-10-07T07:41:51.072Z,6.20
2022-10-07T07:44:25.369Z,5.35
2022-10-07T07:46:54.029Z,5.68
2022-10-07T07:49:26.179Z,5.85
2022-10-07T07:51:59.718Z,5.95
2022-10-07T07:54:30.821Z,5.25
2022-10-07T07:57:02.240Z,5.65
2022-10-07T07:59:35.320Z,5.60
2022-10-07T08:02:08.159Z,5.50
2022-10-07T08:04:41.028Z,5.25
2022-10-07T08:07:13.359Z,5.57
2022-10-07T08:09:46.579Z,5.40
2022-10-07T08:12:21.307Z,5.10
2022-10-07T08:14:52.522Z,5.13
2022-10-07T08:17:22.359Z,5.43
2022-10-07T08:19:54.839Z,4.53
2022-10-07T08:22:42.390Z,4.65
2022-10-07T08:25:14.223Z,4.75
2022-10-07T08:27:43.172Z,5.28
2022-10-07T08:30:16.722Z,4.90
2022-10-07T08:32:46.139Z,4.97
2022-10-07T08:35:14.819Z,4.85
2022-10-07T08:37:43.785Z,4.78
2022-10-07T08:40:21.179Z,4.97
2022-10-07T08:42:49.879Z,4.57
2022-10-07T08:45:29.599Z,4.60
2022-10-07T08:48:00.930Z,4.63
2022-10-07T08:50:36.190Z,5.25
2022-10-07T08:53:08.739Z,4.35
2022-10-07T08:55:42.259Z,4.45
2022-10-07T08:58:44.368Z,4.97
2022-10-07T09:01:26.207Z,4.18
2022-10-07T09:04:05.840Z,4.60
2022-10-07T09:06:39.668Z,5.75
2022-10-07T09:09:14.530Z,4.68
2022-10-07T09:11:47.129Z,4.13
2022-10-07T09:14:26.521Z,4.35
2022-10-07T09:17:02.448Z,3.90
2022-10-07T09:19:36.489Z,3.95
2022-10-07T09:22:13.352Z,4.30
2022-10-07T09:27:17.598Z,4.40
2022-10-07T09:29:46.669Z,4.22
2022-10-07T09:32:19.388Z,4.20
2022-10-07T09:34:48.333Z,4.22
2022-10-07T09:37:21.118Z,3.90
2022-10-07T09:39:51.779Z,3.95
2022-10-07T09:42:36.908Z,4.15
2022-10-07T09:45:20.209Z,3.85
2022-10-07T09:47:56.008Z,4.13
2022-10-07T09:50:43.245Z,4.03
2022-10-07T09:53:20.520Z,3.63
2022-10-07T09:55:50.129Z,4.53
2022-10-07T09:58:22.328Z,3.97
2022-10-07T10:00:52.682Z,4.97
2022-10-07T10:03:29.857Z,3.80
2022-10-07T10:06:00.528Z,4.25
2022-10-07T10:08:32.738Z,3.92
2022-10-07T10:11:02.939Z,3.53
2022-10-07T10:13:36.902Z,3.47
2022-10-07T10:16:07.757Z,3.60
2022-10-07T10:18:39.519Z,3.60
2022-10-07T10:21:25.528Z,3.78
2022-10-07T10:26:48.728Z,3.75
2022-10-07T10:29:38.648Z,3.47
2022-10-07T10:32:38.609Z,3.97
2022-10-07T10:35:20.132Z,3.80
2022-10-07T10:38:02.009Z,3.42
2022-10-07T10:40:36.989Z,3.42
2022-10-07T10:43:22.128Z,4.25
2022-10-07T10:46:06.824Z,3.73
2022-10-07T10:48:43.918Z,3.22
2022-10-07T10:51:32.249Z,4.00
2022-10-07T10:54:14.818Z,3.70
2022-10-07T10:56:52.670Z,3.65
2022-10-07T10:59:34.628Z,3.40
2022-10-07T11:02:17.925Z,3.20
2022-10-07T11:04:50.349Z,3.67
2022-10-07T11:07:25.578Z,3.17
2022-10-07T11:09:58.930Z,3.80
2022-10-07T11:12:40.578Z,3.70
2022-10-07T11:15:29.969Z,3.50
2022-10-07T11:18:05.629Z,3.17
2022-10-07T11:23:29.120Z,3.10
2022-10-07T11:26:05.549Z,3.13
2022-10-07T11:28:39.352Z,3.20
2022-10-07T11:31:15.978Z,3.40
2022-10-07T11:33:55.209Z,3.63
2022-10-07T11:36:32.909Z,3.00
2022-10-07T11:39:03.152Z,3.22
2022-10-07T11:41:50.351Z,3.00
2022-10-07T11:44:31.918Z,3.08
2022-10-07T11:47:06.251Z,2.97
2022-10-07T11:49:42.959Z,2.78
2022-10-07T11:52:23.660Z,3.20
2022-10-07T11:55:02.229Z,3.00
2022-10-07T11:57:37.458Z,3.17
2022-10-07T12:00:08.792Z,2.83
2022-10-07T12:02:46.681Z,2.92
2022-10-07T12:05:59.600Z,2.65
2022-10-07T12:08:33.399Z,3.08
2022-10-07T12:11:44.559Z,3.15
2022-10-07T12:14:41.879Z,2.70
2022-10-07T12:17:28.398Z,2.85
2022-10-07T12:20:33.749Z,2.75
2022-10-07T12:23:47.585Z,2.88
2022-10-07T12:26:52.341Z,2.60
2022-10-07T12:29:58.870Z,2.78
2022-10-07T12:33:01.249Z,2.90
2022-10-07T12:35:54.340Z,2.65
2022-10-07T12:38:28.849Z,2.55
2022-10-07T12:41:13.121Z,2.80
2022-10-07T12:43:53.690Z,2.72
2022-10-07T12:46:25.949Z,2.72
2022-10-07T12:49:01.900Z,2.90
2022-10-07T12:51:39.761Z,2.78
2022-10-07T12:54:18.499Z,2.70
2022-10-07T12:56:47.329Z,2.88
2022-10-07T12:59:47.915Z,2.95
2022-10-07T13:02:54.713Z,2.90
2022-10-07T13:06:11.809Z,3.08
2022-10-07T13:09:13.929Z,3.67
2022-10-07T13:12:17.790Z,3.03
2022-10-07T13:15:00.382Z,2.70
2022-10-07T13:17:42.339Z,3.00
2022-10-07T13:20:39.381Z,2.90
2022-10-07T13:23:16.270Z,3.00
2022-10-07T13:25:47.039Z,2.35
2022-10-07T13:28:17.865Z,2.80
2022-10-07T13:30:47.769Z,2.50
2022-10-07T13:33:22.509Z,2.72
2022-10-07T13:35:51.530Z,2.80
2022-10-07T13:38:30.499Z,3.20
2022-10-07T13:41:03.899Z,2.78
2022-10-07T13:43:34.809Z,2.42
2022-10-07T13:46:05.376Z,3.42
2022-10-07T13:48:43.042Z,5.25
2022-10-07T13:51:24.949Z,5.40
2022-10-07T13:53:58.400Z,6.07
2022-10-07T13:56:32.049Z,5.32
2022-10-07T13:59:01.260Z,4.97
2022-10-07T14:01:32.337Z,4.47
2022-10-07T14:04:10.409Z,5.00
2022-10-07T14:06:49.728Z,5.13
2022-10-07T14:09:28.399Z,5.05
2022-10-07T14:11:59.449Z,4.50
2022-10-07T14:14:32.920Z,4.53
2022-10-07T14:17:01.453Z,4.10
2022-10-07T14:19:33.814Z,4.18
2022-10-07T14:22:04.640Z,3.92
2022-10-07T14:24:34.549Z,3.58
2022-10-07T14:27:04.779Z,4.38
2022-10-07T14:29:37.959Z,3.78
2022-10-07T14:32:35.504Z,3.90
2022-10-07T14:35:20.294Z,3.97
2022-10-07T14:37:49.565Z,3.72
2022-10-07T14:40:22.784Z,3.40
2022-10-07T14:42:53.956Z,4.32
2022-10-07T14:45:24.015Z,3.42
2022-10-07T14:47:52.684Z,3.47
2022-10-07T14:50:21.184Z,3.38
2022-10-07T14:52:52.395Z,3.72
2022-10-07T14:55:26.187Z,3.45
2022-10-07T14:57:55.554Z,3.58
2022-10-07T15:00:27.787Z,3.88
2022-10-07T15:02:57.394Z,3.50
2022-10-07T15:05:34.085Z,3.20
2022-10-07T15:08:02.766Z,3.55
2022-10-07T15:10:33.586Z,3.60
2022-10-07T15:13:03.834Z,3.63
2022-10-07T15:15:33.125Z,3.40
2022-10-07T15:18:01.593Z,3.75
2022-10-07T15:20:30.134Z,3.40
2022-10-07T15:23:06.765Z,3.22
2022-10-07T15:25:42.835Z,3.55
2022-10-07T15:28:11.711Z,3.42
2022-10-07T15:30:40.270Z,3.45
2022-10-07T15:33:08.885Z,3.40
2022-10-07T15:35:37.475Z,3.22
2022-10-07T15:38:06.025Z,3.20
2022-10-07T15:40:36.054Z,3.33
2022-10-07T15:43:04.804Z,3.50
2022-10-07T15:45:36.426Z,3.28
2022-10-07T15:48:05.884Z,3.10
2022-10-07T15:50:34.384Z,3.10
2022-10-07T15:53:03.117Z,2.95
2022-10-07T15:55:33.836Z,2.97
2022-10-07T15:58:03.784Z,3.20
2022-10-07T16:00:32.319Z,2.95
2022-10-07T16:03:03.534Z,2.92
2022-10-07T16:05:32.554Z,3.08
2022-10-07T16:08:03.088Z,3.03
2022-10-07T16:10:31.674Z,2.80
2022-10-07T16:13:00.184Z,2.95
2022-10-07T16:15:30.845Z,3.13
2022-10-07T16:17:59.284Z,2.70
2022-10-07T16:20:28.186Z,2.88
2022-10-07T16:22:56.835Z,3.17
2022-10-07T16:25:25.335Z,2.80
2022-10-07T16:28:10.977Z,2.97
2022-10-07T16:30:49.366Z,2.80
2022-10-07T16:33:19.307Z,3.03
2022-10-07T16:35:47.840Z,2.97
2022-10-07T16:38:16.444Z,2.92
2022-10-07T16:40:53.926Z,2.58
2022-10-07T16:43:22.503Z,2.65
2022-10-07T16:45:52.474Z,2.60
2022-10-07T16:48:21.397Z,2.95
2022-10-07T16:50:50.526Z,3.00
2022-10-07T16:53:19.105Z,2.92
2022-10-07T16:55:47.614Z,3.00
2022-10-07T16:58:16.184Z,3.15
2022-10-07T17:00:44.694Z,2.50
2022-10-07T17:03:14.624Z,2.85
2022-10-07T17:05:43.068Z,2.75
2022-10-07T17:08:11.834Z,2.80
2022-10-07T17:10:42.914Z,2.60
2022-10-07T17:13:11.514Z,2.47
2022-10-07T17:15:41.498Z,2.90
2022-10-07T17:18:10.224Z,2.97
2022-10-07T17:20:40.665Z,2.90
2022-10-07T17:23:09.206Z,3.22
2022-10-07T17:25:39.046Z,2.85
2022-10-07T17:28:07.996Z,3.05
2022-10-07T17:30:36.534Z,2.72
2022-10-07T17:33:05.348Z,2.90
2022-10-07T17:35:34.053Z,2.50
2022-10-07T17:38:06.124Z,2.80
2022-10-07T17:40:36.186Z,2.70
2022-10-07T17:43:07.759Z,2.80
2022-10-07T17:45:36.575Z,2.80
2022-10-07T17:48:05.575Z,2.20
2022-10-07T17:50:38.345Z,2.70
2022-10-07T17:53:08.884Z,2.67
2022-10-07T17:55:37.924Z,2.40
2022-10-07T17:58:06.445Z,2.80
2022-10-07T18:00:35.150Z,2.50
2022-10-07T18:03:03.724Z,2.70
2022-10-07T18:05:32.714Z,2.70
2022-10-07T18:08:01.240Z,2.50
2022-10-07T18:10:31.812Z,2.90
2022-10-07T18:13:17.325Z,2.58
2022-10-07T18:15:45.845Z,2.83
2022-10-07T18:18:15.814Z,2.53
2022-10-07T18:20:44.914Z,2.67
2022-10-07T18:23:13.634Z,2.90
2022-10-07T18:25:44.427Z,2.45
2022-10-07T18:28:13.423Z,2.90
2022-10-07T18:30:42.004Z,3.92
2022-10-07T18:33:10.535Z,4.95
2022-10-07T18:35:39.125Z,3.88
2022-10-07T18:38:07.714Z,7.53
2022-10-07T18:40:36.266Z,8.27
2022-10-07T18:43:06.304Z,92.03
2022-10-07T18:45:34.788Z,35.63
2022-10-07T18:48:03.347Z,25.75
2022-10-07T18:50:33.752Z,24.33
2022-10-07T18:53:02.400Z,22.35
2022-10-07T18:55:31.014Z,20.90
2022-10-07T18:57:59.585Z,19.27
2022-10-07T19:00:30.193Z,17.85
2022-10-07T19:02:59.124Z,16.33
2022-10-07T19:05:33.829Z,17.23
2022-10-07T19:08:39.074Z,16.95
2022-10-07T19:11:16.489Z,15.50
2022-10-07T19:13:54.775Z,14.13
2022-10-07T19:16:27.804Z,14.27
2022-10-07T19:19:04.654Z,14.15
2022-10-07T19:21:37.284Z,14.73
2022-10-07T19:24:06.200Z,14.27
2022-10-07T19:26:37.669Z,14.30
2022-10-07T19:29:09.291Z,13.52
2022-10-07T19:31:42.513Z,14.77
2022-10-07T19:34:13.014Z,14.10
2022-10-07T19:36:59.635Z,13.30
2022-10-07T19:39:36.165Z,13.38
2022-10-07T19:42:06.845Z,13.13
2022-10-07T19:44:37.117Z,12.65
2022-10-07T19:47:07.399Z,12.23
2022-10-07T19:49:38.781Z,12.15
2022-10-07T19:52:07.295Z,11.73
2022-10-07T19:54:39.955Z,11.77
2022-10-07T19:57:08.415Z,11.95
2022-10-07T19:59:37.115Z,11.43
2022-10-07T20:02:08.717Z,11.27
2022-10-07T20:04:38.424Z,10.98
2022-10-07T20:07:06.965Z,11.40
2022-10-07T20:09:36.128Z,10.40
2022-10-07T20:12:05.067Z,10.38
2022-10-07T20:14:36.144Z,10.05
2022-10-07T20:17:05.320Z,10.20
2022-10-07T20:19:35.775Z,9.60
2022-10-07T20:22:04.245Z,9.48
2022-10-07T20:24:34.261Z,9.23
2022-10-07T20:29:58.644Z,9.07
2022-10-07T20:32:29.155Z,8.75
2022-10-07T20:34:59.104Z,7.95
2022-10-07T20:37:28.094Z,8.57
2022-10-07T20:40:13.910Z,8.07
2022-10-07T20:42:46.798Z,7.72
2022-10-07T20:45:18.574Z,7.75
2022-10-07T20:47:47.595Z,7.32
2022-10-07T20:50:17.694Z,7.75
2022-10-07T20:52:46.519Z,7.07
2022-10-07T20:55:15.465Z,7.15
2022-10-07T20:57:44.216Z,7.40
2022-10-07T21:00:16.590Z,7.30
2022-10-07T21:02:54.191Z,6.85
2022-10-07T21:05:38.636Z,7.03
2022-10-07T21:08:08.144Z,7.22
2022-10-07T21:10:36.799Z,7.47
2022-10-07T21:13:05.595Z,6.68
2022-10-07T21:15:38.414Z,7.00
2022-10-07T21:18:07.441Z,6.72
2022-10-07T21:20:37.500Z,6.75
2022-10-07T21:23:06.222Z,7.72
2022-10-07T21:25:35.126Z,6.88
2022-10-07T21:28:03.787Z,6.65
2022-10-07T21:30:33.206Z,6.18
2022-10-07T21:33:01.972Z,6.28
2022-10-07T21:35:33.277Z,5.80
2022-10-07T21:38:04.824Z,6.00
2022-10-07T21:40:34.726Z,5.95
2022-10-07T21:43:08.474Z,6.03
2022-10-07T21:45:48.330Z,5.85
2022-10-07T21:48:21.135Z,5.20
2022-10-07T21:50:57.201Z,5.90
2022-10-07T21:53:28.924Z,6.10
2022-10-07T21:55:58.234Z,5.35
2022-10-07T21:58:28.204Z,5.68
2022-10-07T22:01:18.608Z,5.40
2022-10-07T22:03:48.217Z,5.18
2022-10-07T22:06:19.424Z,5.35
2022-10-07T22:08:51.006Z,5.25
2022-10-07T22:11:22.770Z,5.90
2022-10-07T22:13:55.494Z,5.18
2022-10-07T22:16:32.712Z,5.30
2022-10-07T22:19:07.315Z,5.28
2022-10-07T22:21:42.940Z,5.15
2022-10-07T22:24:18.220Z,5.00
2022-10-07T22:26:53.114Z,5.15
2022-10-07T22:29:24.845Z,5.10
2022-10-07T22:31:56.545Z,5.15
2022-10-07T22:34:43.044Z,4.75
2022-10-07T22:37:12.540Z,5.10
2022-10-07T22:39:42.585Z,4.57
2022-10-07T22:42:11.229Z,4.95
2022-10-07T22:44:39.846Z,4.80
2022-10-07T22:47:08.384Z,4.85
2022-10-07T22:49:37.125Z,4.68
2022-10-07T22:52:05.694Z,4.38
2022-10-07T22:54:34.164Z,4.60
2022-10-07T22:57:07.278Z,4.43
2022-10-07T22:59:37.286Z,5.00
2022-10-07T23:02:06.031Z,4.50
2022-10-07T23:04:35.054Z,4.80
2022-10-07T23:07:04.079Z,5.10
2022-10-07T23:09:32.699Z,4.63
2022-10-07T23:12:01.429Z,4.80
2022-10-07T23:14:31.479Z,4.45
2022-10-07T23:17:02.514Z,4.97
2022-10-07T23:19:31.245Z,4.65
2022-10-07T23:22:00.464Z,4.47
2022-10-07T23:24:29.514Z,4.50
2022-10-07T23:26:58.254Z,4.85
2022-10-07T23:29:27.694Z,4.40
2022-10-07T23:31:59.124Z,4.80
2022-10-07T23:34:27.875Z,3.92
2022-10-07T23:36:56.555Z,4.20
2022-10-07T23:39:25.445Z,4.20
2022-10-07T23:41:53.954Z,4.10
2022-10-07T23:44:24.416Z,4.13
2022-10-07T23:46:53.583Z,4.43
2022-10-07T23:49:23.605Z,4.50
2022-10-07T23:51:52.077Z,4.43
2022-10-07T23:54:20.614Z,3.83
2022-10-07T23:56:49.544Z,4.15
2022-10-07T23:59:18.246Z,4.45
